createdAt,value
2018-05-15T00:02:08.612Z,56.00
2018-05-15T00:04:35.912Z,56.00
2018-05-15T00:07:02.881Z,56.00
2018-05-15T00:09:29.727Z,55.90
2018-05-15T00:11:56.597Z,56.20
2018-05-15T00:14:23.631Z,56.10
2018-05-15T00:16:50.912Z,56.00
2018-05-15T00:19:17.770Z,56.00
2018-05-15T00:21:44.647Z,56.10
2018-05-15T00:24:11.592Z,56.50
2018-05-15T00:26:38.548Z,56.30
2018-05-15T00:29:05.405Z,56.60
2018-05-15T00:31:32.269Z,56.90
2018-05-15T00:33:59.240Z,57.10
2018-05-15T00:36:26.096Z,56.80
2018-05-15T00:38:52.973Z,57.00
2018-05-15T00:41:19.817Z,57.20
2018-05-15T00:43:46.761Z,57.70
2018-05-15T00:46:13.757Z,57.70
2018-05-15T00:48:41.047Z,57.10
2018-05-15T00:51:08.298Z,57.30
2018-05-15T00:53:35.164Z,57.10
2018-05-15T00:56:02.458Z,57.00
2018-05-15T00:58:29.327Z,57.00
2018-05-15T01:00:56.291Z,57.10
2018-05-15T01:03:23.152Z,56.40
2018-05-15T01:05:50.039Z,56.90
2018-05-15T01:08:16.880Z,56.60
2018-05-15T01:10:43.748Z,56.60
2018-05-15T01:13:10.700Z,56.40
2018-05-15T01:15:37.639Z,56.50
2018-05-15T01:18:04.539Z,56.60
2018-05-15T01:20:31.432Z,56.70
2018-05-15T01:22:58.303Z,56.90
2018-05-15T01:25:25.169Z,57.10
2018-05-15T01:27:52.148Z,57.10
2018-05-15T01:30:19.022Z,57.10
2018-05-15T01:32:45.946Z,57.30
2018-05-15T01:35:12.795Z,57.50
2018-05-15T01:37:39.772Z,57.80
2018-05-15T01:40:06.635Z,57.80
2018-05-15T01:42:33.475Z,58.00
2018-05-15T01:45:00.328Z,58.20
2018-05-15T01:47:27.296Z,58.30
2018-05-15T01:49:54.253Z,58.70
2018-05-15T01:52:21.106Z,59.20
2018-05-15T01:54:47.980Z,58.50
2018-05-15T01:57:15.041Z,58.60
2018-05-15T01:59:41.989Z,59.10
2018-05-15T02:02:08.847Z,59.10
2018-05-15T02:04:35.699Z,59.00
2018-05-15T02:07:02.584Z,59.00
2018-05-15T02:09:29.455Z,59.50
2018-05-15T02:11:56.385Z,59.90
2018-05-15T02:14:23.331Z,59.50
2018-05-15T02:16:50.226Z,59.40
2018-05-15T02:19:17.147Z,60.30
2018-05-15T02:21:44.098Z,60.20
2018-05-15T02:24:10.950Z,60.80
2018-05-15T02:26:37.828Z,60.90
2018-05-15T02:29:04.695Z,60.80
2018-05-15T02:31:31.541Z,61.20
2018-05-15T02:33:58.413Z,61.30
2018-05-15T02:36:25.273Z,61.30
2018-05-15T02:38:52.158Z,61.60
2018-05-15T02:41:19.176Z,61.80
2018-05-15T02:43:46.130Z,61.50
2018-05-15T02:46:12.983Z,61.50
2018-05-15T02:48:39.946Z,61.90
2018-05-15T02:51:06.790Z,62.10
2018-05-15T02:53:33.756Z,61.90
2018-05-15T02:56:00.721Z,62.00
2018-05-15T02:58:27.567Z,62.10
2018-05-15T03:00:54.449Z,62.20
2018-05-15T03:03:23.014Z,62.40
2018-05-15T03:05:49.944Z,62.60
2018-05-15T03:08:16.857Z,63.20
2018-05-15T03:10:43.716Z,62.50
2018-05-15T03:13:10.594Z,62.20
2018-05-15T03:15:37.444Z,62.30
2018-05-15T03:18:04.303Z,62.20
2018-05-15T03:20:31.164Z,62.20
2018-05-15T03:22:58.026Z,62.50
2018-05-15T03:25:24.885Z,62.70
2018-05-15T03:27:51.814Z,63.00
2018-05-15T03:30:18.674Z,62.70
2018-05-15T03:32:45.624Z,62.50
2018-05-15T03:35:12.533Z,62.60
2018-05-15T03:37:39.832Z,63.10
2018-05-15T03:40:06.800Z,63.10
2018-05-15T03:42:33.663Z,63.20
2018-05-15T03:45:00.555Z,63.50
2018-05-15T03:47:27.408Z,65.00
2018-05-15T03:49:54.358Z,66.00
2018-05-15T03:52:21.231Z,67.40
2018-05-15T03:54:48.143Z,66.80
2018-05-15T03:57:15.108Z,67.70
2018-05-15T03:59:42.040Z,66.40
2018-05-15T04:02:20.849Z,67.30
2018-05-15T04:04:59.811Z,68.40
2018-05-15T04:07:38.742Z,66.30
2018-05-15T04:10:05.662Z,66.30
2018-05-15T04:12:32.472Z,65.70
2018-05-15T04:14:59.740Z,65.60
2018-05-15T04:17:26.984Z,66.00
2018-05-15T04:19:53.906Z,66.00
2018-05-15T04:22:20.868Z,65.90
2018-05-15T04:24:47.734Z,65.70
2018-05-15T04:27:14.668Z,66.00
2018-05-15T04:29:41.528Z,66.50
2018-05-15T04:32:08.477Z,65.70
2018-05-15T04:34:35.335Z,65.80
2018-05-15T04:37:02.221Z,65.70
2018-05-15T04:39:29.057Z,65.80
2018-05-15T04:41:55.925Z,65.50
2018-05-15T04:44:22.800Z,65.60
2018-05-15T04:46:49.643Z,65.40
2018-05-15T04:49:16.557Z,65.60
2018-05-15T04:51:43.397Z,65.70
2018-05-15T04:54:10.709Z,65.60
2018-05-15T04:56:37.598Z,65.60
2018-05-15T04:59:04.576Z,65.50
2018-05-15T05:01:31.430Z,65.20
2018-05-15T05:03:58.308Z,65.40
2018-05-15T05:06:25.585Z,64.90
2018-05-15T05:08:52.456Z,64.90
2018-05-15T05:11:19.417Z,64.70
2018-05-15T05:13:46.268Z,64.90
2018-05-15T05:16:13.120Z,65.20
2018-05-15T05:18:39.992Z,65.20
2018-05-15T05:21:06.915Z,65.60
2018-05-15T05:23:33.808Z,65.60
2018-05-15T05:26:00.774Z,65.20
2018-05-15T05:28:27.719Z,65.10
2018-05-15T05:30:54.584Z,65.10
2018-05-15T05:33:21.483Z,64.90
2018-05-15T05:35:48.376Z,64.40
2018-05-15T05:38:15.682Z,64.90
2018-05-15T05:40:42.568Z,65.00
2018-05-15T05:43:09.423Z,64.90
2018-05-15T05:45:36.360Z,65.10
2018-05-15T05:48:03.236Z,64.90
2018-05-15T05:50:30.090Z,65.30
2018-05-15T05:52:57.008Z,65.30
2018-05-15T05:55:23.913Z,65.60
2018-05-15T05:57:50.790Z,64.90
2018-05-15T06:00:18.031Z,64.80
2018-05-15T06:02:44.920Z,64.80
2018-05-15T06:05:12.207Z,64.00
2018-05-15T06:07:39.061Z,64.10
2018-05-15T06:10:05.945Z,63.10
2018-05-15T06:12:32.808Z,62.40
2018-05-15T06:14:59.675Z,62.80
2018-05-15T06:17:26.634Z,62.20
2018-05-15T06:19:53.492Z,62.30
2018-05-15T06:22:20.351Z,62.00
2018-05-15T06:24:47.246Z,60.60
2018-05-15T06:27:14.257Z,61.40
2018-05-15T06:29:41.203Z,60.90
2018-05-15T06:32:08.053Z,60.90
2018-05-15T06:34:34.909Z,60.90
2018-05-15T06:37:01.869Z,61.20
2018-05-15T06:39:28.728Z,60.70
2018-05-15T06:41:55.648Z,60.00
2018-05-15T06:44:22.898Z,60.90
2018-05-15T06:46:49.852Z,60.90
2018-05-15T06:49:16.721Z,59.90
2018-05-15T06:51:43.723Z,59.80
2018-05-15T06:54:10.601Z,59.40
2018-05-15T06:56:37.452Z,59.40
2018-05-15T06:59:04.308Z,59.00
2018-05-15T07:01:31.184Z,58.30
2018-05-15T07:03:58.123Z,59.10
2018-05-15T07:06:24.989Z,59.40
2018-05-15T07:08:51.947Z,58.90
2018-05-15T07:11:18.887Z,58.40
2018-05-15T07:13:45.738Z,58.40
2018-05-15T07:16:12.599Z,59.30
2018-05-15T07:18:39.453Z,58.70
2018-05-15T07:21:06.315Z,59.20
2018-05-15T07:23:33.175Z,59.70
2018-05-15T07:26:00.056Z,59.20
2018-05-15T07:28:26.925Z,59.10
2018-05-15T07:30:53.880Z,60.00
2018-05-15T07:33:20.737Z,60.00
2018-05-15T07:35:47.629Z,59.10
2018-05-15T07:38:14.941Z,58.10
2018-05-15T07:40:41.790Z,58.10
2018-05-15T07:43:08.665Z,58.20
2018-05-15T07:45:35.537Z,58.60
2018-05-15T07:48:02.420Z,58.10
2018-05-15T07:50:29.701Z,57.30
2018-05-15T07:52:56.974Z,57.80
2018-05-15T07:55:23.865Z,57.80
2018-05-15T07:57:50.735Z,57.80
2018-05-15T08:00:17.639Z,57.30
2018-05-15T08:02:44.884Z,57.40
2018-05-15T08:05:11.771Z,57.30
2018-05-15T08:07:38.754Z,56.60
2018-05-15T08:10:05.710Z,56.10
2018-05-15T08:12:32.575Z,57.50
2018-05-15T08:14:59.650Z,57.60
2018-05-15T08:17:26.568Z,57.90
2018-05-15T08:19:53.443Z,55.80
2018-05-15T08:22:20.519Z,56.20
2018-05-15T08:24:47.269Z,56.00
2018-05-15T08:27:14.130Z,56.10
2018-05-15T08:29:41.198Z,56.20
2018-05-15T08:32:08.101Z,56.30
2018-05-15T08:34:35.351Z,56.30
2018-05-15T08:37:02.620Z,56.90
2018-05-15T08:39:29.927Z,55.60
2018-05-15T08:41:57.282Z,54.80
2018-05-15T08:44:24.725Z,55.00
2018-05-15T08:46:51.569Z,55.00
2018-05-15T08:49:18.503Z,55.70
2018-05-15T08:51:45.356Z,56.20
2018-05-15T08:54:12.332Z,56.40
2018-05-15T08:56:39.176Z,55.10
2018-05-15T08:59:06.047Z,54.80
2018-05-15T09:01:32.907Z,55.00
2018-05-15T09:03:59.755Z,56.30
2018-05-15T09:06:26.655Z,54.80
2018-05-15T09:08:53.962Z,55.30
2018-05-15T09:11:20.832Z,55.30
2018-05-15T09:13:47.768Z,55.70
2018-05-15T09:16:14.636Z,55.90
2018-05-15T09:18:41.584Z,56.10
2018-05-15T09:21:08.552Z,56.30
2018-05-15T09:23:35.428Z,54.90
2018-05-15T09:26:02.361Z,54.90
2018-05-15T09:28:29.256Z,55.40
2018-05-15T09:30:56.107Z,57.20
2018-05-15T09:33:23.040Z,55.30
2018-05-15T09:35:49.871Z,54.80
2018-05-15T09:38:16.865Z,55.60
2018-05-15T09:40:43.760Z,55.30
2018-05-15T09:43:10.596Z,55.00
2018-05-15T09:45:37.615Z,55.60
2018-05-15T09:48:04.900Z,56.20
2018-05-15T09:50:31.768Z,56.10
2018-05-15T09:52:58.708Z,54.70
2018-05-15T09:55:25.600Z,55.30
2018-05-15T09:57:52.477Z,56.30
2018-05-15T10:00:19.340Z,55.00
2018-05-15T10:02:46.576Z,54.90
2018-05-15T10:05:13.442Z,54.90
2018-05-15T10:07:40.369Z,55.80
2018-05-15T10:10:07.640Z,55.80
2018-05-15T10:12:34.514Z,55.80
2018-05-15T10:15:01.474Z,54.50
2018-05-15T10:17:28.428Z,56.10
2018-05-15T10:19:55.297Z,55.50
2018-05-15T10:22:22.155Z,55.90
2018-05-15T10:24:49.055Z,55.80
2018-05-15T10:27:15.915Z,55.00
2018-05-15T10:29:42.772Z,55.70
2018-05-15T10:32:09.667Z,55.60
2018-05-15T10:34:36.616Z,55.40
2018-05-15T10:37:03.478Z,55.40
2018-05-15T10:39:30.433Z,55.70
2018-05-15T10:41:57.307Z,55.00
2018-05-15T10:44:24.502Z,55.40
2018-05-15T10:46:51.391Z,55.30
2018-05-15T10:49:18.251Z,55.60
2018-05-15T10:51:45.124Z,54.70
2018-05-15T10:54:11.997Z,54.50
2018-05-15T10:56:38.900Z,53.80
2018-05-15T10:59:05.806Z,54.80
2018-05-15T11:01:32.752Z,53.30
2018-05-15T11:03:59.620Z,53.60
2018-05-15T11:06:26.563Z,53.60
2018-05-15T11:08:53.489Z,52.80
2018-05-15T11:11:20.832Z,52.20
2018-05-15T11:13:47.757Z,52.20
2018-05-15T11:16:14.721Z,52.60
2018-05-15T11:18:41.682Z,52.20
2018-05-15T11:21:20.933Z,52.30
2018-05-15T11:23:59.533Z,52.00
2018-05-15T11:26:26.500Z,51.50
2018-05-15T11:28:53.473Z,52.60
2018-05-15T11:31:20.320Z,52.70
2018-05-15T11:33:47.185Z,53.10
2018-05-15T11:36:14.045Z,52.30
2018-05-15T11:38:40.892Z,52.20
2018-05-15T11:41:07.792Z,52.80
2018-05-15T11:43:34.633Z,53.00
2018-05-15T11:46:01.506Z,52.50
2018-05-15T11:48:28.939Z,51.90
2018-05-15T11:50:55.898Z,50.80
2018-05-15T11:53:22.141Z,50.60
2018-05-15T11:55:49.083Z,51.40
2018-05-15T11:58:16.544Z,50.80
2018-05-15T12:00:43.295Z,50.80
2018-05-15T12:03:10.560Z,51.40
2018-05-15T12:05:37.820Z,50.50
2018-05-15T12:08:05.183Z,50.40
2018-05-15T12:10:32.440Z,50.50
2018-05-15T12:12:59.304Z,50.50
2018-05-15T12:15:26.619Z,51.40
2018-05-15T12:17:53.569Z,51.40
2018-05-15T12:20:20.567Z,51.50
2018-05-15T12:22:47.399Z,50.40
2018-05-15T12:25:14.360Z,50.90
2018-05-15T12:27:43.322Z,51.40
2018-05-15T12:30:08.173Z,50.50
2018-05-15T12:32:35.040Z,49.40
2018-05-15T12:35:01.918Z,50.20
2018-05-15T12:37:28.756Z,50.20
2018-05-15T12:39:55.707Z,50.90
2018-05-15T12:42:22.765Z,51.70
2018-05-15T12:44:49.712Z,50.70
2018-05-15T12:47:16.656Z,51.30
2018-05-15T12:49:43.529Z,51.60
2018-05-15T12:52:10.421Z,51.80
2018-05-15T12:54:37.292Z,51.70
2018-05-15T12:57:04.202Z,51.00
2018-05-15T12:59:31.053Z,51.50
2018-05-15T13:01:57.918Z,51.50
2018-05-15T13:04:24.776Z,51.30
2018-05-15T13:06:51.816Z,51.20
2018-05-15T13:09:19.095Z,50.50
2018-05-15T13:11:45.961Z,50.30
2018-05-15T13:14:12.821Z,50.90
2018-05-15T13:16:39.707Z,50.80
2018-05-15T13:19:06.608Z,50.60
2018-05-15T13:21:33.496Z,50.00
2018-05-15T13:24:00.339Z,50.10
2018-05-15T13:26:27.215Z,50.00
2018-05-15T13:28:54.169Z,49.90
2018-05-15T13:31:21.138Z,50.40
2018-05-15T13:33:48.044Z,49.70
2018-05-15T13:36:15.346Z,49.80
2018-05-15T13:38:42.204Z,49.70
2018-05-15T13:41:09.139Z,49.30
2018-05-15T13:43:35.924Z,49.20
2018-05-15T13:46:02.976Z,48.80
2018-05-15T13:48:29.855Z,50.30
2018-05-15T13:50:56.806Z,49.00
2018-05-15T13:53:23.673Z,48.80
2018-05-15T13:55:50.603Z,49.60
2018-05-15T13:58:17.480Z,49.40
2018-05-15T14:00:44.338Z,49.90
2018-05-15T14:03:11.288Z,49.50
2018-05-15T14:05:38.164Z,49.20
2018-05-15T14:08:05.115Z,49.80
2018-05-15T14:10:31.986Z,50.10
2018-05-15T14:12:58.829Z,50.30
2018-05-15T14:15:25.797Z,50.70
2018-05-15T14:17:52.893Z,51.50
2018-05-15T14:20:20.164Z,51.50
2018-05-15T14:22:47.430Z,51.30
2018-05-15T14:25:14.739Z,50.80
2018-05-15T14:27:41.624Z,50.80
2018-05-15T14:30:08.465Z,50.90
2018-05-15T14:32:35.331Z,50.90
2018-05-15T14:35:02.262Z,51.40
2018-05-15T14:37:29.108Z,51.60
2018-05-15T14:39:55.973Z,50.70
2018-05-15T14:42:34.912Z,50.40
2018-05-15T14:45:01.771Z,51.30
2018-05-15T14:47:28.648Z,53.40
2018-05-15T14:49:55.484Z,53.40
2018-05-15T14:52:22.455Z,53.30
2018-05-15T14:54:49.340Z,53.70
2018-05-15T14:57:16.272Z,53.10
2018-05-15T14:59:43.160Z,53.10
2018-05-15T15:02:10.082Z,52.60
2018-05-15T15:04:36.951Z,52.50
2018-05-15T15:07:03.807Z,51.30
2018-05-15T15:09:30.752Z,50.90
2018-05-15T15:11:57.649Z,51.40
2018-05-15T15:14:24.575Z,51.20
2018-05-15T15:16:51.452Z,51.70
2018-05-15T15:19:18.466Z,52.40
2018-05-15T15:21:45.745Z,52.80
2018-05-15T15:24:12.596Z,52.80
2018-05-15T15:26:39.452Z,51.00
2018-05-15T15:29:06.371Z,50.80
2018-05-15T15:31:33.184Z,51.20
2018-05-15T15:34:00.059Z,51.60
2018-05-15T15:36:26.904Z,51.00
2018-05-15T15:38:53.779Z,51.10
2018-05-15T15:41:20.634Z,51.30
2018-05-15T15:43:47.619Z,51.70
2018-05-15T15:46:14.435Z,51.20
2018-05-15T15:48:41.290Z,49.60
2018-05-15T15:51:08.171Z,49.60
2018-05-15T15:53:35.060Z,49.80
2018-05-15T15:56:02.308Z,50.80
2018-05-15T15:58:29.156Z,50.90
2018-05-15T16:00:56.088Z,49.00
2018-05-15T16:03:23.337Z,49.00
2018-05-15T16:05:50.005Z,49.80
2018-05-15T16:08:16.864Z,49.70
2018-05-15T16:10:43.733Z,49.00
2018-05-15T16:13:10.580Z,49.40
2018-05-15T16:15:37.478Z,49.40
2018-05-15T16:18:04.305Z,49.40
2018-05-15T16:20:31.171Z,49.30
2018-05-15T16:22:58.035Z,48.20
2018-05-15T16:25:24.970Z,48.20
2018-05-15T16:27:51.920Z,47.70
2018-05-15T16:30:18.793Z,46.90
2018-05-15T16:32:45.659Z,46.30
2018-05-15T16:35:12.530Z,46.30
2018-05-15T16:37:39.495Z,47.00
2018-05-15T16:40:06.678Z,49.20
2018-05-15T16:42:33.928Z,49.30
2018-05-15T16:45:00.798Z,49.30
2018-05-15T16:47:28.169Z,49.50
2018-05-15T16:49:54.971Z,49.50
2018-05-15T16:52:21.860Z,50.20
2018-05-15T16:54:48.784Z,51.00
2018-05-15T16:57:15.740Z,50.40
2018-05-15T16:59:42.603Z,51.00
2018-05-15T17:02:09.568Z,51.30
2018-05-15T17:04:36.436Z,51.80
2018-05-15T17:07:03.369Z,52.60
2018-05-15T17:09:30.235Z,53.00
2018-05-15T17:11:57.093Z,53.80
2018-05-15T17:14:23.991Z,54.70
2018-05-15T17:16:50.859Z,55.80
2018-05-15T17:19:18.177Z,55.60
2018-05-15T17:21:45.033Z,55.60
2018-05-15T17:24:11.916Z,55.30
2018-05-15T17:26:38.830Z,55.00
2018-05-15T17:29:05.885Z,54.70
2018-05-15T17:31:33.196Z,53.10
2018-05-15T17:34:00.013Z,53.10
2018-05-15T17:36:26.883Z,53.70
2018-05-15T17:38:53.744Z,54.30
2018-05-15T17:41:20.889Z,54.90
2018-05-15T17:43:48.173Z,55.60
2018-05-15T17:46:15.025Z,55.60
2018-05-15T17:48:41.883Z,56.00
2018-05-15T17:51:08.793Z,56.20
2018-05-15T17:53:35.643Z,56.80
2018-05-15T17:56:02.508Z,57.30
2018-05-15T17:58:29.372Z,57.50
2018-05-15T18:00:56.639Z,57.20
2018-05-15T18:03:23.508Z,57.30
2018-05-15T18:05:50.757Z,56.80
2018-05-15T18:08:18.902Z,57.00
2018-05-15T18:10:45.766Z,57.00
2018-05-15T18:13:12.725Z,57.20
2018-05-15T18:15:39.684Z,57.40
2018-05-15T18:18:06.741Z,57.30
2018-05-15T18:20:33.687Z,57.40
2018-05-15T18:23:00.539Z,57.40
2018-05-15T18:25:27.524Z,57.60
2018-05-15T18:27:54.432Z,57.40
2018-05-15T18:30:21.678Z,57.20
2018-05-15T18:32:48.597Z,57.20
2018-05-15T18:35:15.541Z,58.20
2018-05-15T18:37:42.529Z,59.50
2018-05-15T18:40:09.550Z,60.80
2018-05-15T18:42:36.457Z,62.10
2018-05-15T18:45:03.317Z,63.00
2018-05-15T18:47:30.183Z,63.80
2018-05-15T18:49:57.026Z,64.30
2018-05-15T18:52:24.044Z,64.70
2018-05-15T18:54:50.911Z,64.80
2018-05-15T18:57:17.781Z,65.20
2018-05-15T18:59:44.670Z,65.60
2018-05-15T19:02:11.540Z,66.10
2018-05-15T19:04:38.396Z,66.60
2018-05-15T19:07:05.672Z,67.70
2018-05-15T19:09:32.619Z,67.70
2018-05-15T19:11:59.468Z,68.00
2018-05-15T19:14:26.324Z,68.40
2018-05-15T19:16:53.239Z,68.40
2018-05-15T19:19:20.295Z,68.50
2018-05-15T19:21:47.248Z,69.20
2018-05-15T19:24:14.232Z,69.70
2018-05-15T19:26:41.191Z,69.90
2018-05-15T19:29:08.099Z,70.00
2018-05-15T19:31:35.403Z,70.10
2018-05-15T19:34:02.276Z,70.10
2018-05-15T19:36:29.136Z,70.00
2018-05-15T19:38:56.077Z,69.80
2018-05-15T19:41:23.054Z,69.60
2018-05-15T19:43:50.312Z,69.10
2018-05-15T19:46:17.183Z,69.10
2018-05-15T19:48:44.116Z,69.20
2018-05-15T19:51:11.595Z,69.40
2018-05-15T19:53:38.483Z,69.20
2018-05-15T19:56:05.432Z,68.90
2018-05-15T19:58:32.318Z,68.90
2018-05-15T20:00:59.177Z,68.30
2018-05-15T20:03:26.604Z,68.20
2018-05-15T20:05:53.466Z,68.20
2018-05-15T20:08:20.424Z,68.10
2018-05-15T20:10:47.330Z,68.40
2018-05-15T20:13:14.600Z,69.00
2018-05-15T20:15:41.852Z,69.30
2018-05-15T20:18:09.189Z,69.10
2018-05-15T20:20:36.077Z,69.10
2018-05-15T20:23:03.402Z,68.90
2018-05-15T20:25:30.580Z,68.90
2018-05-15T20:27:57.441Z,69.50
2018-05-15T20:30:24.368Z,69.70
2018-05-15T20:32:51.212Z,69.50
2018-05-15T20:35:18.235Z,69.10
2018-05-15T20:37:45.144Z,68.80
2018-05-15T20:40:12.072Z,68.90
2018-05-15T20:42:38.973Z,69.00
2018-05-15T20:45:05.884Z,69.90
2018-05-15T20:47:32.813Z,70.50
2018-05-15T20:49:59.677Z,71.00
2018-05-15T20:52:26.555Z,71.80
2018-05-15T20:54:53.792Z,72.50
2018-05-15T20:57:20.711Z,72.50
2018-05-15T20:59:47.564Z,72.80
2018-05-15T21:02:14.459Z,73.00
2018-05-15T21:04:41.377Z,72.90
2018-05-15T21:07:08.277Z,72.50
2018-05-15T21:09:35.144Z,72.30
2018-05-15T21:12:02.047Z,72.40
2018-05-15T21:14:29.300Z,72.50
2018-05-15T21:16:56.548Z,72.60
2018-05-15T21:19:23.960Z,72.80
2018-05-15T21:21:50.948Z,72.90
2018-05-15T21:24:17.722Z,73.00
2018-05-15T21:26:44.661Z,73.20
2018-05-15T21:29:11.535Z,73.00
2018-05-15T21:31:38.430Z,72.80
2018-05-15T21:34:05.292Z,72.90
2018-05-15T21:36:32.152Z,73.30
2018-05-15T21:38:59.036Z,72.90
2018-05-15T21:41:25.911Z,72.60
2018-05-15T21:43:52.836Z,72.70
2018-05-15T21:46:19.720Z,72.20
2018-05-15T21:48:46.765Z,72.30
2018-05-15T21:51:13.724Z,72.20
2018-05-15T21:53:40.599Z,71.90
2018-05-15T21:56:07.483Z,71.70
2018-05-15T21:58:34.782Z,71.90
2018-05-15T22:01:01.679Z,71.90
2018-05-15T22:03:28.536Z,71.50
2018-05-15T22:05:55.478Z,71.70
2018-05-15T22:08:22.323Z,71.60
2018-05-15T22:10:49.198Z,71.50
2018-05-15T22:13:27.881Z,71.40
2018-05-15T22:16:06.963Z,72.40
2018-05-15T22:18:45.823Z,72.40
2018-05-15T22:21:24.743Z,72.80
2018-05-15T22:23:51.111Z,72.90
2018-05-15T22:26:17.989Z,72.60
2018-05-15T22:28:44.835Z,72.10
2018-05-15T22:31:11.757Z,72.00
2018-05-15T22:33:38.654Z,71.80
2018-05-15T22:36:05.616Z,71.60
2018-05-15T22:38:32.479Z,71.60
2018-05-15T22:40:59.395Z,71.60
2018-05-15T22:43:26.652Z,71.40
2018-05-15T22:45:53.515Z,71.30
2018-05-15T22:48:20.469Z,71.10
2018-05-15T22:50:47.335Z,71.10
2018-05-15T22:53:14.480Z,71.60
2018-05-15T22:55:41.335Z,71.60
2018-05-15T22:58:08.191Z,71.70
2018-05-15T23:00:35.054Z,71.60
2018-05-15T23:03:01.907Z,71.60
2018-05-15T23:05:28.909Z,71.50
2018-05-15T23:07:55.760Z,71.50
2018-05-15T23:10:22.628Z,71.70
2018-05-15T23:12:49.510Z,71.50
2018-05-15T23:15:16.815Z,71.20
2018-05-15T23:17:43.671Z,71.20
2018-05-15T23:20:10.550Z,71.30
2018-05-15T23:22:42.152Z,71.90
2018-05-15T23:25:09.471Z,72.40
2018-05-15T23:27:36.328Z,72.40
2018-05-15T23:30:03.184Z,73.00
2018-05-15T23:32:30.163Z,73.20
2018-05-15T23:34:57.041Z,73.00
2018-05-15T23:37:23.892Z,73.10
2018-05-15T23:39:50.815Z,73.60
2018-05-15T23:42:17.753Z,74.50
2018-05-15T23:44:44.629Z,74.60
2018-05-15T23:47:11.517Z,74.90
2018-05-15T23:49:38.451Z,74.70
2018-05-15T23:52:05.592Z,72.70
2018-05-15T23:54:32.780Z,72.50
2018-05-15T23:56:59.636Z,72.20
2018-05-15T23:59:26.585Z,71.90
